Luis Gomes, Brazil
Current Conditions -  °F | °C
As of 11:00 AM on Tuesday 27 Jan 2015 (Local Time) from SBJU Reporting Station
Few Clouds Few Clouds  
Wind Chill: 90°   Ceiling: Unl
Heat Index: 96°   Visibility: 6mi
Dew Point: 72°   Wind: 5mph
Humidity: 55%   Direction: 280°W
Pressure: 30.03"   Gusts: NA
Location:  6.41°S, 38.39°W
Report Text: SBJU 271400Z 28004KT 9999 FEW020 32/22 Q1017
Loading
Personal Weather Stations






























Interactive Weather Map New forecast layout! Learn more

10-Day Weather Forecast

Advertisements
Track Severe Weather on mobile